createdAt,value
2018-09-13T00:30:10.049Z,50.30
2018-09-13T00:32:36.270Z,54.50
2018-09-13T00:35:02.446Z,54.40
2018-09-13T00:37:28.760Z,53.80
2018-09-13T00:39:54.958Z,52.90
2018-09-13T00:42:21.130Z,52.00
2018-09-13T00:44:47.611Z,51.80
2018-09-13T00:47:13.840Z,51.20
2018-09-13T00:49:40.300Z,51.20
2018-09-13T00:52:06.516Z,51.00
2018-09-13T00:54:32.740Z,49.70
2018-09-13T00:56:58.967Z,50.60
2018-09-13T00:59:25.176Z,50.60
2018-09-13T01:01:51.405Z,50.90
2018-09-13T01:04:17.634Z,50.50
2018-09-13T01:06:43.787Z,50.80
2018-09-13T01:09:10.093Z,50.50
2018-09-13T01:11:36.366Z,49.80
2018-09-13T01:14:02.824Z,51.10
2018-09-13T01:16:29.187Z,50.50
2018-09-13T01:18:55.411Z,50.40
2018-09-13T01:21:21.645Z,49.40
2018-09-13T01:23:47.869Z,50.30
2018-09-13T01:26:14.098Z,50.50
2018-09-13T01:28:41.036Z,50.60
2018-09-13T01:31:07.363Z,50.60
2018-09-13T01:33:33.778Z,50.30
2018-09-13T01:36:00.835Z,50.20
2018-09-13T01:38:27.068Z,50.20
2018-09-13T01:40:53.320Z,50.30
2018-09-13T01:43:19.536Z,50.30
2018-09-13T01:45:45.759Z,50.70
2018-09-13T01:48:11.987Z,50.50
2018-09-13T01:50:40.924Z,49.30
2018-09-13T01:53:07.120Z,49.20
2018-09-13T01:55:33.350Z,49.90
2018-09-13T01:57:59.558Z,50.20
2018-09-13T02:00:25.785Z,49.50
2018-09-13T02:02:52.003Z,50.10
2018-09-13T02:05:18.439Z,50.10
2018-09-13T02:07:44.677Z,49.70
2018-09-13T02:10:10.900Z,49.80
2018-09-13T02:12:37.213Z,50.00
2018-09-13T02:15:03.572Z,49.50
2018-09-13T02:17:29.796Z,50.40
2018-09-13T02:19:56.010Z,49.60
2018-09-13T02:22:22.240Z,49.90
2018-09-13T02:24:48.470Z,50.20
2018-09-13T02:27:14.745Z,50.40
2018-09-13T02:29:40.924Z,50.30
2018-09-13T02:32:07.218Z,50.00
2018-09-13T02:34:33.501Z,50.20
2018-09-13T02:36:59.858Z,50.00
2018-09-13T02:39:26.031Z,49.60
2018-09-13T02:41:52.261Z,49.50
2018-09-13T02:44:18.470Z,50.20
2018-09-13T02:46:45.587Z,50.50
2018-09-13T02:49:11.819Z,50.40
2018-09-13T02:51:38.279Z,50.10
2018-09-13T02:54:04.636Z,50.50
2018-09-13T02:56:30.848Z,50.30
2018-09-13T02:58:57.077Z,49.10
2018-09-13T03:01:23.305Z,49.10
2018-09-13T03:03:49.465Z,49.60
2018-09-13T03:06:15.804Z,49.70
2018-09-13T03:08:41.971Z,49.80
2018-09-13T03:11:09.040Z,49.80
2018-09-13T03:13:35.269Z,49.80
2018-09-13T03:16:01.484Z,49.40
2018-09-13T03:18:27.720Z,49.50
2018-09-13T03:20:53.949Z,48.50
2018-09-13T03:23:22.840Z,49.30
2018-09-13T03:25:49.088Z,49.80
2018-09-13T03:28:15.336Z,49.90
2018-09-13T03:30:41.532Z,49.80
2018-09-13T03:33:07.748Z,50.00
2018-09-13T03:35:34.000Z,50.00
2018-09-13T03:38:00.200Z,49.90
2018-09-13T03:40:26.429Z,49.00
2018-09-13T03:42:52.677Z,49.10
2018-09-13T03:45:19.098Z,49.60
2018-09-13T03:47:45.324Z,49.00
2018-09-13T03:50:11.567Z,48.70
2018-09-13T03:52:37.775Z,48.70
2018-09-13T03:55:04.000Z,48.90
2018-09-13T03:57:30.224Z,48.80
2018-09-13T03:59:56.495Z,48.70
2018-09-13T04:02:22.668Z,49.70
2018-09-13T04:04:52.821Z,49.70
2018-09-13T04:07:19.025Z,49.40
2018-09-13T04:09:45.252Z,48.80
2018-09-13T04:12:11.474Z,49.10
2018-09-13T04:14:37.774Z,49.90
2018-09-13T04:17:04.156Z,48.60
2018-09-13T04:19:30.526Z,49.30
2018-09-13T04:21:56.813Z,49.70
2018-09-13T04:24:23.029Z,48.90
2018-09-13T04:26:49.252Z,48.60
2018-09-13T04:29:15.432Z,49.40
2018-09-13T04:31:41.765Z,49.80
2018-09-13T04:34:08.143Z,49.30
2018-09-13T04:36:34.365Z,49.70
2018-09-13T04:39:00.611Z,49.40
2018-09-13T04:41:26.840Z,49.60
2018-09-13T04:43:53.053Z,48.90
2018-09-13T04:46:19.280Z,48.80
2018-09-13T04:48:45.513Z,49.00
2018-09-13T04:51:11.745Z,49.20
2018-09-13T04:53:37.926Z,49.70
2018-09-13T04:56:05.052Z,49.60
2018-09-13T04:58:31.440Z,49.60
2018-09-13T05:00:57.664Z,49.80
2018-09-13T05:03:23.936Z,49.10
2018-09-13T05:05:50.135Z,48.90
2018-09-13T05:08:16.364Z,48.70
2018-09-13T05:10:42.576Z,48.60
2018-09-13T05:13:08.795Z,48.80
2018-09-13T05:15:35.045Z,49.00
2018-09-13T05:18:01.303Z,49.50
2018-09-13T05:20:27.544Z,49.00
2018-09-13T05:22:53.738Z,48.90
2018-09-13T05:25:19.979Z,49.50
2018-09-13T05:27:46.199Z,49.10
2018-09-13T05:30:12.389Z,48.30
2018-09-13T05:32:38.664Z,49.10
2018-09-13T05:35:04.840Z,49.70
2018-09-13T05:37:31.088Z,48.20
2018-09-13T05:39:57.328Z,48.30
2018-09-13T05:42:23.533Z,49.30
2018-09-13T05:44:49.807Z,48.50
2018-09-13T05:47:15.977Z,49.30
2018-09-13T05:49:42.252Z,49.30
2018-09-13T05:52:08.436Z,49.20
2018-09-13T05:54:34.665Z,48.30
2018-09-13T05:57:00.900Z,49.30
2018-09-13T05:59:27.129Z,48.50
2018-09-13T06:01:53.358Z,49.10
2018-09-13T06:04:19.574Z,49.00
2018-09-13T06:06:45.903Z,48.40
2018-09-13T06:09:12.236Z,48.90
2018-09-13T06:11:38.400Z,48.50
2018-09-13T06:14:04.572Z,48.30
2018-09-13T06:16:30.936Z,49.00
2018-09-13T06:18:57.192Z,49.10
2018-09-13T06:21:23.373Z,48.30
2018-09-13T06:23:49.528Z,48.20
2018-09-13T06:26:15.824Z,49.20
2018-09-13T06:28:42.194Z,48.60
2018-09-13T06:31:08.488Z,49.10
2018-09-13T06:33:34.748Z,48.40
2018-09-13T06:36:00.911Z,49.10
2018-09-13T06:38:28.064Z,49.00
2018-09-13T06:40:54.451Z,49.00
2018-09-13T06:43:20.687Z,49.20
2018-09-13T06:45:46.872Z,48.70
2018-09-13T06:48:13.316Z,48.60
2018-09-13T06:50:39.483Z,49.40
2018-09-13T06:53:05.760Z,49.10
2018-09-13T06:55:31.998Z,48.70
2018-09-13T06:57:58.232Z,48.40
2018-09-13T07:00:24.512Z,48.80
2018-09-13T07:02:50.876Z,48.70
2018-09-13T07:05:17.092Z,48.10
2018-09-13T07:07:43.327Z,49.30
2018-09-13T07:10:09.479Z,48.80
2018-09-13T07:12:35.803Z,48.10
2018-09-13T07:15:02.117Z,48.50
2018-09-13T07:17:28.504Z,49.00
2018-09-13T07:19:54.674Z,48.90
2018-09-13T07:22:20.903Z,49.30
2018-09-13T07:24:47.140Z,49.00
2018-09-13T07:27:13.355Z,48.60
2018-09-13T07:29:39.580Z,48.40
2018-09-13T07:32:05.820Z,49.20
2018-09-13T07:34:31.984Z,49.20
2018-09-13T07:36:58.208Z,48.20
2018-09-13T07:44:27.812Z,48.60
2018-09-13T07:46:53.976Z,48.40
2018-09-13T07:49:20.289Z,48.10
2018-09-13T07:51:46.691Z,48.40
2018-09-13T07:54:12.913Z,49.40
2018-09-13T07:56:39.186Z,49.00
2018-09-13T07:59:05.367Z,48.70
2018-09-13T08:01:31.997Z,48.00
2018-09-13T08:03:58.235Z,48.20
2018-09-13T08:06:24.462Z,49.00
2018-09-13T08:08:50.623Z,48.30
2018-09-13T08:11:16.921Z,49.00
2018-09-13T08:13:43.235Z,49.30
2018-09-13T08:16:09.580Z,48.70
2018-09-13T08:18:35.847Z,49.00
2018-09-13T08:21:02.025Z,49.00
2018-09-13T08:23:28.255Z,48.80
2018-09-13T08:25:54.545Z,49.00
2018-09-13T08:28:20.703Z,49.30
2018-09-13T08:30:46.935Z,48.70
2018-09-13T08:33:13.213Z,48.40
2018-09-13T08:35:40.472Z,48.60
2018-09-13T08:38:06.693Z,48.50
2018-09-13T08:40:35.119Z,49.10
2018-09-13T08:43:01.419Z,49.10
2018-09-13T08:45:27.781Z,48.90
2018-09-13T08:47:54.068Z,49.20
2018-09-13T08:50:20.265Z,49.20
2018-09-13T08:52:46.460Z,48.20
2018-09-13T08:55:12.711Z,48.90
2018-09-13T08:57:39.124Z,49.30
2018-09-13T09:00:05.352Z,49.20
2018-09-13T09:02:31.613Z,48.70
2018-09-13T09:04:57.816Z,48.30
2018-09-13T09:07:24.031Z,48.90
2018-09-13T09:09:50.294Z,48.80
2018-09-13T09:12:16.557Z,49.30
2018-09-13T09:14:42.726Z,48.70
2018-09-13T09:17:08.951Z,48.10
2018-09-13T09:19:35.178Z,49.00
2018-09-13T09:22:01.464Z,48.80
2018-09-13T09:24:27.640Z,48.10
2018-09-13T09:26:54.680Z,48.10
2018-09-13T09:29:20.917Z,48.50
2018-09-13T09:31:47.337Z,48.80
2018-09-13T09:34:13.630Z,48.70
2018-09-13T09:36:39.794Z,48.20
2018-09-13T09:39:06.025Z,49.40
2018-09-13T09:41:32.253Z,48.90
2018-09-13T09:43:58.532Z,48.50
2018-09-13T09:46:24.709Z,48.70
2018-09-13T09:48:50.935Z,49.20
2018-09-13T09:51:17.155Z,48.90
2018-09-13T09:53:43.347Z,48.30
2018-09-13T09:56:10.440Z,49.80
2018-09-13T09:58:36.859Z,49.00
2018-09-13T10:01:03.089Z,49.40
2018-09-13T10:03:29.362Z,48.30
2018-09-13T10:05:55.545Z,48.90
2018-09-13T10:08:21.767Z,49.30
2018-09-13T10:10:48.002Z,48.70
2018-09-13T10:13:14.219Z,49.20
2018-09-13T10:15:40.454Z,49.30
2018-09-13T10:18:06.684Z,48.30
2018-09-13T10:20:32.924Z,49.00
2018-09-13T10:22:59.209Z,49.80
2018-09-13T10:25:25.612Z,49.30
2018-09-13T10:27:51.847Z,49.00
2018-09-13T10:30:18.228Z,49.20
2018-09-13T10:32:44.398Z,48.80
2018-09-13T10:35:10.685Z,49.00
2018-09-13T10:37:36.907Z,49.80
2018-09-13T10:40:03.158Z,49.40
2018-09-13T10:42:29.368Z,49.50
2018-09-13T10:44:55.592Z,49.80
2018-09-13T10:47:21.840Z,49.60
2018-09-13T10:49:48.292Z,49.80
2018-09-13T10:52:14.576Z,49.20
2018-09-13T10:54:40.926Z,48.30
2018-09-13T10:57:07.144Z,49.30
2018-09-13T10:59:33.367Z,49.50
2018-09-13T11:01:59.589Z,49.70
2018-09-13T11:04:25.876Z,49.70
2018-09-13T11:06:52.292Z,49.40
2018-09-13T11:09:18.480Z,48.50
2018-09-13T11:11:44.658Z,49.60
2018-09-13T11:14:10.948Z,49.70
2018-09-13T11:16:38.037Z,48.50
2018-09-13T11:19:04.208Z,48.50
2018-09-13T11:21:30.437Z,49.90
2018-09-13T11:23:56.659Z,49.80
2018-09-13T11:26:22.914Z,49.30
2018-09-13T11:28:49.117Z,48.50
2018-09-13T11:31:15.300Z,49.50
2018-09-13T11:33:41.568Z,49.20
2018-09-13T11:36:07.796Z,49.40
2018-09-13T11:41:05.624Z,49.40
2018-09-13T11:43:32.626Z,50.00
2018-09-13T11:45:58.895Z,49.90
2018-09-13T11:48:25.079Z,49.00
2018-09-13T11:50:51.352Z,48.90
2018-09-13T11:53:17.733Z,49.40
2018-09-13T11:55:43.989Z,49.90
2018-09-13T11:58:10.205Z,49.70
2018-09-13T12:00:36.420Z,49.50
2018-09-13T12:03:02.673Z,49.70
2018-09-13T12:05:28.904Z,49.80
2018-09-13T12:07:55.100Z,49.50
2018-09-13T12:10:21.336Z,49.50
2018-09-13T12:12:47.591Z,49.50
2018-09-13T12:15:13.800Z,49.90
2018-09-13T12:17:40.016Z,49.70
2018-09-13T12:20:06.192Z,49.60
2018-09-13T12:22:32.644Z,49.50
2018-09-13T12:24:58.900Z,49.50
2018-09-13T12:27:25.145Z,49.30
2018-09-13T12:29:51.568Z,49.70
2018-09-13T12:32:17.792Z,49.10
2018-09-13T12:34:44.052Z,49.60
2018-09-13T12:37:10.243Z,49.80
2018-09-13T12:39:36.471Z,49.30
2018-09-13T12:42:02.719Z,49.50
2018-09-13T12:44:28.923Z,49.30
2018-09-13T12:46:55.249Z,49.60
2018-09-13T12:49:21.580Z,49.20
2018-09-13T12:51:47.850Z,49.30
2018-09-13T12:54:14.031Z,49.50
2018-09-13T12:56:40.342Z,49.30
2018-09-13T12:59:06.699Z,49.60
2018-09-13T13:01:32.908Z,49.80
2018-09-13T13:03:59.976Z,49.10
2018-09-13T13:06:26.204Z,49.00
2018-09-13T13:08:52.490Z,49.60
2018-09-13T13:11:18.899Z,49.50
2018-09-13T13:13:45.084Z,49.00
2018-09-13T13:16:11.344Z,49.30
2018-09-13T13:18:37.544Z,49.50
2018-09-13T13:21:03.712Z,48.60
2018-09-13T13:23:30.649Z,49.40
2018-09-13T13:25:56.848Z,48.90
2018-09-13T13:28:23.072Z,48.80
2018-09-13T13:30:49.267Z,48.90
2018-09-13T13:33:16.414Z,49.00
2018-09-13T13:35:42.789Z,49.10
2018-09-13T13:38:08.999Z,49.10
2018-09-13T13:40:35.271Z,48.70
2018-09-13T13:43:01.481Z,48.80
2018-09-13T13:45:27.689Z,49.20
2018-09-13T13:47:53.916Z,48.70
2018-09-13T13:50:20.136Z,49.20
2018-09-13T13:52:46.363Z,48.80
2018-09-13T13:55:12.595Z,48.60
2018-09-13T13:57:38.816Z,49.00
2018-09-13T14:00:05.088Z,49.10
2018-09-13T14:02:31.273Z,48.80
2018-09-13T14:04:57.451Z,48.70
2018-09-13T14:07:23.725Z,48.90
2018-09-13T14:09:50.022Z,48.70
2018-09-13T14:12:16.585Z,48.80
2018-09-13T14:14:42.813Z,48.90
2018-09-13T14:17:09.103Z,49.00
2018-09-13T14:19:35.272Z,48.60
2018-09-13T14:22:01.500Z,48.60
2018-09-13T14:24:27.767Z,48.90
2018-09-13T14:26:54.010Z,48.60
2018-09-13T14:29:20.886Z,48.40
2018-09-13T14:31:47.233Z,48.60
2018-09-13T14:34:13.464Z,48.40
2018-09-13T14:36:39.711Z,48.40
2018-09-13T14:39:05.948Z,48.40
2018-09-13T14:41:32.188Z,48.30
2018-09-13T14:43:58.565Z,48.60
2018-09-13T14:46:24.830Z,48.50
2018-09-13T14:48:51.080Z,48.40
2018-09-13T14:51:17.251Z,48.60
2018-09-13T14:53:43.480Z,48.60
2018-09-13T14:56:09.785Z,48.50
2018-09-13T14:58:36.135Z,48.40
2018-09-13T15:01:02.364Z,48.30
2018-09-13T15:03:28.602Z,48.50
2018-09-13T15:05:54.815Z,48.40
2018-09-13T15:08:21.057Z,48.40
2018-09-13T15:10:47.279Z,49.10
2018-09-13T15:13:13.508Z,49.30
2018-09-13T15:15:39.731Z,48.80
2018-09-13T15:18:05.977Z,48.90
2018-09-13T15:20:33.008Z,48.70
2018-09-13T15:22:59.242Z,48.80
2018-09-13T15:25:25.471Z,49.00
2018-09-13T15:27:51.705Z,48.60
2018-09-13T15:30:17.955Z,49.20
2018-09-13T15:32:44.144Z,49.10
2018-09-13T15:35:10.367Z,48.90
2018-09-13T15:37:36.604Z,48.70
2018-09-13T15:40:02.844Z,48.90
2018-09-13T15:42:29.252Z,48.60
2018-09-13T15:44:55.487Z,48.70
2018-09-13T15:47:21.711Z,48.70
2018-09-13T15:49:47.938Z,48.60
2018-09-13T15:52:14.154Z,48.20
2018-09-13T15:54:40.398Z,48.50
2018-09-13T15:57:06.620Z,48.40
2018-09-13T15:59:32.922Z,48.40
2018-09-13T16:01:59.323Z,48.90
2018-09-13T16:04:25.516Z,48.90
2018-09-13T16:06:51.739Z,48.60
2018-09-13T16:09:17.903Z,49.20
2018-09-13T16:11:44.192Z,48.40
2018-09-13T16:14:10.439Z,48.40
2018-09-13T16:16:36.635Z,48.30
2018-09-13T16:19:03.592Z,49.00
2018-09-13T16:21:29.835Z,48.90
2018-09-13T16:23:56.189Z,48.60
2018-09-13T16:26:22.615Z,48.70
2018-09-13T16:28:49.039Z,48.90
2018-09-13T16:31:15.248Z,48.50
2018-09-13T16:33:41.708Z,48.80
2018-09-13T16:36:07.908Z,48.40
2018-09-13T16:38:34.164Z,48.70
2018-09-13T16:41:00.349Z,48.50
2018-09-13T16:43:26.580Z,48.60
2018-09-13T16:45:52.807Z,48.70
2018-09-13T16:48:19.036Z,48.60
2018-09-13T16:50:45.264Z,48.50
2018-09-13T16:53:11.519Z,48.40
2018-09-13T16:55:41.396Z,48.60
2018-09-13T16:58:07.550Z,48.60
2018-09-13T17:00:33.712Z,48.70
2018-09-13T17:02:59.887Z,48.40
2018-09-13T17:05:26.107Z,48.40
2018-09-13T17:07:52.335Z,48.50
2018-09-13T17:10:18.614Z,48.80
2018-09-13T17:12:44.798Z,48.60
2018-09-13T17:15:11.028Z,48.80
2018-09-13T17:17:37.244Z,49.00
2018-09-13T17:20:04.331Z,48.80
2018-09-13T17:22:30.719Z,48.80
2018-09-13T17:24:57.055Z,48.70
2018-09-13T17:27:23.381Z,48.80
2018-09-13T17:29:49.616Z,48.50
2018-09-13T17:32:15.833Z,48.90
2018-09-13T17:34:42.055Z,48.70
2018-09-13T17:37:08.298Z,49.70
2018-09-13T17:39:34.525Z,49.00
2018-09-13T17:42:00.736Z,49.00
2018-09-13T17:44:26.969Z,49.00
2018-09-13T17:46:53.199Z,49.30
2018-09-13T17:49:23.320Z,49.20
2018-09-13T17:51:49.548Z,49.10
2018-09-13T17:54:15.783Z,49.20
2018-09-13T17:56:42.018Z,49.10
2018-09-13T17:59:08.228Z,49.40
2018-09-13T18:01:34.464Z,49.40
2018-09-13T18:04:00.697Z,49.30
2018-09-13T18:06:26.933Z,49.50
2018-09-13T18:08:53.143Z,49.30
2018-09-13T18:11:19.415Z,49.30
2018-09-13T18:13:45.594Z,49.30
2018-09-13T18:16:11.836Z,49.60
2018-09-13T18:18:38.084Z,49.50
2018-09-13T18:21:04.348Z,49.50
2018-09-13T18:23:30.820Z,49.30
2018-09-13T18:25:57.135Z,49.20
2018-09-13T18:28:23.367Z,49.30
2018-09-13T18:30:49.600Z,49.10
2018-09-13T18:33:15.834Z,49.30
2018-09-13T18:35:42.243Z,49.30
2018-09-13T18:38:08.485Z,49.20
2018-09-13T18:40:34.706Z,49.40
2018-09-13T18:43:00.937Z,49.20
2018-09-13T20:07:23.200Z,49.30
2018-09-13T20:09:52.174Z,53.30
2018-09-13T20:12:18.651Z,52.40
2018-09-13T20:14:44.986Z,51.80
2018-09-13T20:17:11.378Z,50.80
2018-09-13T20:19:37.596Z,50.40
2018-09-13T20:22:03.829Z,49.80
2018-09-13T20:24:30.096Z,49.40
2018-09-13T20:26:56.492Z,49.20
2018-09-13T20:29:22.785Z,49.00
2018-09-13T20:31:48.955Z,48.90
2018-09-13T20:34:15.119Z,48.90
2018-09-13T20:36:41.400Z,48.80
2018-09-13T20:39:07.696Z,48.60
2018-09-13T20:41:34.057Z,48.80
2018-09-13T20:44:05.402Z,48.40
2018-09-13T20:46:31.683Z,48.80
2018-09-13T20:48:57.857Z,48.60
2018-09-13T20:51:24.134Z,48.60
2018-09-13T20:53:50.321Z,48.40
2018-09-13T20:56:16.544Z,48.40
2018-09-13T20:58:42.715Z,48.40
2018-09-13T21:01:09.001Z,48.30
2018-09-13T21:03:35.248Z,48.30
2018-09-13T21:06:01.452Z,48.40
2018-09-13T21:08:27.702Z,48.40
2018-09-13T21:10:53.904Z,48.30
2018-09-13T21:13:20.133Z,48.60
2018-09-13T21:15:46.366Z,48.20
2018-09-13T21:18:12.582Z,48.30
2018-09-13T21:20:38.822Z,48.30
2018-09-13T21:23:05.043Z,48.10
2018-09-13T21:25:31.241Z,48.00
2018-09-13T21:27:58.328Z,48.10
2018-09-13T21:30:24.593Z,48.10
2018-09-13T21:32:50.846Z,48.10
2018-09-13T21:35:17.195Z,48.10
2018-09-13T21:37:43.440Z,48.20
2018-09-13T21:40:09.659Z,48.00
2018-09-13T21:42:35.902Z,47.90
2018-09-13T21:45:02.066Z,47.90
2018-09-13T21:47:28.341Z,47.80
2018-09-13T21:49:54.574Z,48.00
2018-09-13T21:52:20.805Z,47.80
2018-09-13T21:54:47.020Z,48.00
2018-09-13T21:57:13.281Z,47.90
2018-09-13T21:59:39.471Z,47.80
2018-09-13T22:02:05.707Z,47.80
2018-09-13T22:04:31.928Z,47.80
2018-09-13T22:06:58.155Z,47.70
2018-09-13T22:09:24.401Z,47.80
2018-09-13T22:11:50.632Z,47.70
2018-09-13T22:14:16.847Z,47.70
2018-09-13T22:16:43.104Z,47.60
2018-09-13T22:19:09.296Z,47.50
2018-09-13T22:21:35.571Z,47.50
2018-09-13T22:24:01.956Z,47.60
2018-09-13T22:26:28.249Z,47.40
2018-09-13T22:28:54.420Z,47.50
2018-09-13T22:31:20.648Z,47.50
2018-09-13T22:33:46.876Z,47.70
2018-09-13T22:36:13.129Z,47.50
2018-09-13T22:38:39.524Z,47.40
2018-09-13T22:41:06.640Z,47.40
2018-09-13T22:43:32.925Z,47.20
2018-09-13T22:45:59.232Z,47.40
2018-09-13T22:48:25.511Z,47.20
2018-09-13T22:50:51.694Z,47.20
2018-09-13T22:53:17.952Z,47.20
2018-09-13T22:55:44.352Z,47.20
2018-09-13T22:58:10.608Z,47.20
2018-09-13T23:00:36.893Z,46.90
2018-09-13T23:03:03.267Z,47.00
2018-09-13T23:05:29.523Z,47.10
2018-09-13T23:07:55.885Z,46.90
2018-09-13T23:10:22.128Z,46.90
2018-09-13T23:12:48.343Z,46.90
2018-09-13T23:15:15.395Z,46.70
2018-09-13T23:17:41.838Z,46.70
2018-09-13T23:20:08.047Z,46.60
2018-09-13T23:22:34.277Z,46.70
2018-09-13T23:25:00.500Z,46.60
2018-09-13T23:27:26.740Z,46.70
2018-09-13T23:29:52.957Z,46.50
2018-09-13T23:32:19.192Z,46.50
2018-09-13T23:34:45.625Z,46.50
2018-09-13T23:37:11.848Z,46.40
2018-09-13T23:39:38.219Z,46.30
2018-09-13T23:42:04.504Z,46.40
2018-09-13T23:44:30.741Z,46.10
2018-09-13T23:46:57.008Z,46.30
2018-09-13T23:49:23.197Z,46.30
2018-09-13T23:51:49.428Z,46.10
2018-09-13T23:54:15.649Z,46.10
2018-09-13T23:56:41.875Z,46.00
2018-09-13T23:59:08.102Z,45.90
